sensor_id;sensor_type;location;lat;lon;timestamp;pressure;altitude;pressure_sealevel;temperature;humidity
18813;BME280;9534;51.140;6.296;2022-12-29T00:02:05;99384.50;;;11.47;100.00
18813;BME280;9534;51.140;6.296;2022-12-29T00:06:08;99352.97;;;11.61;100.00
18813;BME280;9534;51.140;6.296;2022-12-29T00:10:12;99367.50;;;11.62;100.00
18813;BME280;9534;51.140;6.296;2022-12-29T00:14:16;99343.53;;;11.69;100.00
18813;BME280;9534;51.140;6.296;2022-12-29T00:18:37;99319.72;;;11.69;100.00
18813;BME280;9534;51.140;6.296;2022-12-29T00:22:40;99336.47;;;11.73;100.00
18813;BME280;9534;51.140;6.296;2022-12-29T00:27:11;99303.59;;;11.73;100.00
18813;BME280;9534;51.140;6.296;2022-12-29T00:31:36;99310.59;;;11.80;100.00
18813;BME280;9534;51.140;6.296;2022-12-29T00:36:00;99297.75;;;12.02;100.00
18813;BME280;9534;51.140;6.296;2022-12-29T00:40:05;99289.59;;;12.07;100.00
18813;BME280;9534;51.140;6.296;2022-12-29T00:44:25;99284.09;;;12.07;100.00
18813;BME280;9534;51.140;6.296;2022-12-29T00:48:30;99272.91;;;12.09;100.00
18813;BME280;9534;51.140;6.296;2022-12-29T00:52:51;99271.47;;;12.06;100.00
18813;BME280;9534;51.140;6.296;2022-12-29T00:56:54;99267.28;;;12.20;100.00
18813;BME280;9534;51.140;6.296;2022-12-29T01:01:01;99261.56;;;12.22;100.00
18813;BME280;9534;51.140;6.296;2022-12-29T01:05:08;99260.16;;;12.19;100.00
18813;BME280;9534;51.140;6.296;2022-12-29T01:09:12;99256.31;;;12.20;100.00
18813;BME280;9534;51.140;6.296;2022-12-29T01:13:33;99274.94;;;12.18;100.00
18813;BME280;9534;51.140;6.296;2022-12-29T01:17:38;99267.50;;;12.14;100.00
18813;BME280;9534;51.140;6.296;2022-12-29T01:21:42;99251.28;;;12.12;100.00
18813;BME280;9534;51.140;6.296;2022-12-29T01:25:46;99250.03;;;12.03;100.00
18813;BME280;9534;51.140;6.296;2022-12-29T01:29:50;99251.91;;;12.19;100.00
18813;BME280;9534;51.140;6.296;2022-12-29T01:33:53;99239.56;;;12.17;100.00
18813;BME280;9534;51.140;6.296;2022-12-29T01:37:57;99237.91;;;12.16;100.00
18813;BME280;9534;51.140;6.296;2022-12-29T01:42:00;99213.16;;;12.11;100.00
18813;BME280;9534;51.140;6.296;2022-12-29T01:46:04;99235.25;;;12.04;100.00
18813;BME280;9534;51.140;6.296;2022-12-29T01:50:16;99240.22;;;12.07;100.00
18813;BME280;9534;51.140;6.296;2022-12-29T01:54:27;99227.59;;;12.06;100.00
18813;BME280;9534;51.140;6.296;2022-12-29T01:58:34;99258.03;;;12.05;100.00
18813;BME280;9534;51.140;6.296;2022-12-29T02:02:38;99225.94;;;12.05;100.00
18813;BME280;9534;51.140;6.296;2022-12-29T02:06:46;99211.72;;;12.08;100.00
18813;BME280;9534;51.140;6.296;2022-12-29T02:10:52;99208.88;;;12.20;100.00
18813;BME280;9534;51.140;6.296;2022-12-29T02:14:59;99212.94;;;12.17;100.00
18813;BME280;9534;51.140;6.296;2022-12-29T02:19:29;99208.03;;;12.19;100.00
18813;BME280;9534;51.140;6.296;2022-12-29T02:23:57;99210.34;;;12.27;100.00
18813;BME280;9534;51.140;6.296;2022-12-29T02:28:33;99181.81;;;12.28;100.00
18813;BME280;9534;51.140;6.296;2022-12-29T02:32:49;99188.97;;;12.29;100.00
18813;BME280;9534;51.140;6.296;2022-12-29T02:37:01;99175.72;;;12.21;100.00
18813;BME280;9534;51.140;6.296;2022-12-29T02:41:11;99169.41;;;12.21;100.00
18813;BME280;9534;51.140;6.296;2022-12-29T02:45:22;99186.94;;;12.20;100.00
18813;BME280;9534;51.140;6.296;2022-12-29T02:49:33;99188.22;;;12.12;100.00
18813;BME280;9534;51.140;6.296;2022-12-29T02:53:39;99175.06;;;12.14;100.00
18813;BME280;9534;51.140;6.296;2022-12-29T02:58:17;99182.47;;;12.14;100.00
18813;BME280;9534;51.140;6.296;2022-12-29T03:02:32;99181.06;;;12.11;100.00
18813;BME280;9534;51.140;6.296;2022-12-29T03:06:49;99195.41;;;11.97;100.00
18813;BME280;9534;51.140;6.296;2022-12-29T03:11:00;99204.63;;;11.69;100.00
18813;BME280;9534;51.140;6.296;2022-12-29T03:15:10;99200.13;;;11.63;100.00
18813;BME280;9534;51.140;6.296;2022-12-29T03:19:35;99200.72;;;11.65;100.00
18813;BME280;9534;51.140;6.296;2022-12-29T03:23:45;99186.16;;;11.81;100.00
18813;BME280;9534;51.140;6.296;2022-12-29T03:27:54;99173.34;;;11.87;100.00
18813;BME280;9534;51.140;6.296;2022-12-29T03:32:01;99175.84;;;11.88;100.00
18813;BME280;9534;51.140;6.296;2022-12-29T03:36:10;99165.53;;;11.95;100.00
18813;BME280;9534;51.140;6.296;2022-12-29T03:40:16;99162.28;;;11.98;100.00
18813;BME280;9534;51.140;6.296;2022-12-29T03:44:21;99142.53;;;12.01;100.00
18813;BME280;9534;51.140;6.296;2022-12-29T03:48:24;99122.72;;;12.16;100.00
18813;BME280;9534;51.140;6.296;2022-12-29T03:52:29;99126.84;;;12.18;100.00
18813;BME280;9534;51.140;6.296;2022-12-29T03:56:33;99135.16;;;12.23;100.00
18813;BME280;9534;51.140;6.296;2022-12-29T04:00:37;99124.16;;;12.23;100.00
18813;BME280;9534;51.140;6.296;2022-12-29T04:04:41;99125.25;;;12.22;100.00
18813;BME280;9534;51.140;6.296;2022-12-29T04:08:44;99123.09;;;12.24;100.00
18813;BME280;9534;51.140;6.296;2022-12-29T04:12:49;99129.53;;;12.13;100.00
18813;BME280;9534;51.140;6.296;2022-12-29T04:16:53;99154.16;;;12.08;100.00
18813;BME280;9534;51.140;6.296;2022-12-29T04:20:56;99147.06;;;12.12;100.00
18813;BME280;9534;51.140;6.296;2022-12-29T04:25:06;99148.16;;;12.11;100.00
18813;BME280;9534;51.140;6.296;2022-12-29T04:29:11;99142.91;;;12.31;100.00
18813;BME280;9534;51.140;6.296;2022-12-29T04:33:28;99142.47;;;12.39;100.00
18813;BME280;9534;51.140;6.296;2022-12-29T04:37:32;99138.41;;;12.46;100.00
18813;BME280;9534;51.140;6.296;2022-12-29T04:41:35;99155.78;;;12.52;100.00
18813;BME280;9534;51.140;6.296;2022-12-29T04:45:44;99143.59;;;12.43;100.00
18813;BME280;9534;51.140;6.296;2022-12-29T04:49:59;99138.22;;;12.53;100.00
18813;BME280;9534;51.140;6.296;2022-12-29T04:54:08;99133.81;;;12.52;100.00
18813;BME280;9534;51.140;6.296;2022-12-29T04:58:11;99154.88;;;12.46;100.00
18813;BME280;9534;51.140;6.296;2022-12-29T05:02:24;99137.66;;;12.51;100.00
18813;BME280;9534;51.140;6.296;2022-12-29T05:06:30;99138.16;;;12.48;100.00
18813;BME280;9534;51.140;6.296;2022-12-29T05:10:33;99133.25;;;12.50;100.00
18813;BME280;9534;51.140;6.296;2022-12-29T05:14:43;99139.81;;;12.49;100.00
18813;BME280;9534;51.140;6.296;2022-12-29T05:18:47;99134.59;;;12.47;100.00
18813;BME280;9534;51.140;6.296;2022-12-29T05:22:51;99128.84;;;12.49;100.00
18813;BME280;9534;51.140;6.296;2022-12-29T05:26:54;99149.72;;;12.50;100.00
18813;BME280;9534;51.140;6.296;2022-12-29T05:31:27;99175.72;;;12.47;100.00
18813;BME280;9534;51.140;6.296;2022-12-29T05:35:31;99171.56;;;12.40;100.00
18813;BME280;9534;51.140;6.296;2022-12-29T05:39:35;99186.28;;;12.34;100.00
18813;BME280;9534;51.140;6.296;2022-12-29T05:43:39;99178.50;;;12.26;100.00
18813;BME280;9534;51.140;6.296;2022-12-29T05:48:08;99179.28;;;12.22;100.00
18813;BME280;9534;51.140;6.296;2022-12-29T05:52:38;99186.88;;;12.15;100.00
18813;BME280;9534;51.140;6.296;2022-12-29T05:56:42;99205.66;;;12.06;100.00
18813;BME280;9534;51.140;6.296;2022-12-29T06:00:46;99190.56;;;12.04;100.00
18813;BME280;9534;51.140;6.296;2022-12-29T06:04:50;99169.94;;;11.96;100.00
18813;BME280;9534;51.140;6.296;2022-12-29T06:08:55;99187.13;;;11.92;100.00
18813;BME280;9534;51.140;6.296;2022-12-29T06:12:58;99199.44;;;11.89;100.00
18813;BME280;9534;51.140;6.296;2022-12-29T06:17:02;99206.59;;;11.90;100.00
18813;BME280;9534;51.140;6.296;2022-12-29T06:21:06;99208.88;;;11.98;100.00
18813;BME280;9534;51.140;6.296;2022-12-29T06:25:11;99220.47;;;12.05;100.00
18813;BME280;9534;51.140;6.296;2022-12-29T06:29:16;99213.31;;;12.04;100.00
18813;BME280;9534;51.140;6.296;2022-12-29T06:33:20;99222.00;;;11.96;100.00
18813;BME280;9534;51.140;6.296;2022-12-29T06:37:23;99232.47;;;11.99;100.00
18813;BME280;9534;51.140;6.296;2022-12-29T06:41:28;99223.34;;;11.94;100.00
18813;BME280;9534;51.140;6.296;2022-12-29T06:45:57;99244.09;;;11.90;100.00
18813;BME280;9534;51.140;6.296;2022-12-29T06:50:00;99245.47;;;11.87;100.00
18813;BME280;9534;51.140;6.296;2022-12-29T06:54:04;99252.94;;;11.75;100.00
18813;BME280;9534;51.140;6.296;2022-12-29T06:58:08;99263.84;;;11.70;100.00
18813;BME280;9534;51.140;6.296;2022-12-29T07:02:11;99242.31;;;11.62;100.00
18813;BME280;9534;51.140;6.296;2022-12-29T07:06:16;99261.72;;;11.61;100.00
18813;BME280;9534;51.140;6.296;2022-12-29T07:10:19;99268.38;;;11.65;100.00
18813;BME280;9534;51.140;6.296;2022-12-29T07:14:24;99262.09;;;11.64;100.00
18813;BME280;9534;51.140;6.296;2022-12-29T07:18:27;99276.84;;;11.63;100.00
18813;BME280;9534;51.140;6.296;2022-12-29T07:22:30;99268.03;;;11.61;100.00
18813;BME280;9534;51.140;6.296;2022-12-29T07:26:33;99273.53;;;11.61;100.00
18813;BME280;9534;51.140;6.296;2022-12-29T07:30:39;99283.41;;;11.62;100.00
18813;BME280;9534;51.140;6.296;2022-12-29T07:34:42;99280.00;;;11.55;100.00
18813;BME280;9534;51.140;6.296;2022-12-29T07:38:47;99286.06;;;11.57;100.00
18813;BME280;9534;51.140;6.296;2022-12-29T07:42:50;99287.97;;;11.57;100.00
18813;BME280;9534;51.140;6.296;2022-12-29T07:47:03;99293.53;;;11.45;100.00
18813;BME280;9534;51.140;6.296;2022-12-29T07:51:06;99299.09;;;11.50;100.00
18813;BME280;9534;51.140;6.296;2022-12-29T07:55:09;99292.34;;;11.41;100.00
18813;BME280;9534;51.140;6.296;2022-12-29T07:59:13;99297.75;;;11.36;100.00
18813;BME280;9534;51.140;6.296;2022-12-29T08:03:18;99290.59;;;11.35;100.00
18813;BME280;9534;51.140;6.296;2022-12-29T08:07:21;99331.19;;;11.38;100.00
18813;BME280;9534;51.140;6.296;2022-12-29T08:11:24;99323.88;;;11.27;100.00
18813;BME280;9534;51.140;6.296;2022-12-29T08:15:27;99342.19;;;11.10;100.00
18813;BME280;9534;51.140;6.296;2022-12-29T08:19:34;99339.84;;;11.03;100.00
18813;BME280;9534;51.140;6.296;2022-12-29T08:23:37;99358.06;;;10.97;100.00
18813;BME280;9534;51.140;6.296;2022-12-29T08:27:41;99353.88;;;11.06;100.00
18813;BME280;9534;51.140;6.296;2022-12-29T08:31:44;99365.81;;;11.16;100.00
18813;BME280;9534;51.140;6.296;2022-12-29T08:35:48;99364.59;;;11.08;100.00
18813;BME280;9534;51.140;6.296;2022-12-29T08:39:51;99361.59;;;11.09;100.00
18813;BME280;9534;51.140;6.296;2022-12-29T08:43:54;99365.06;;;11.05;100.00
18813;BME280;9534;51.140;6.296;2022-12-29T08:47:57;99362.34;;;11.05;100.00
18813;BME280;9534;51.140;6.296;2022-12-29T08:52:02;99372.91;;;11.12;100.00
18813;BME280;9534;51.140;6.296;2022-12-29T08:56:06;99374.13;;;11.21;100.00
18813;BME280;9534;51.140;6.296;2022-12-29T09:00:18;99356.19;;;11.42;100.00
18813;BME280;9534;51.140;6.296;2022-12-29T09:04:22;99358.69;;;11.43;100.00
18813;BME280;9534;51.140;6.296;2022-12-29T09:08:27;99355.94;;;11.71;100.00
18813;BME280;9534;51.140;6.296;2022-12-29T09:12:30;99371.56;;;11.59;100.00
18813;BME280;9534;51.140;6.296;2022-12-29T09:16:37;99366.31;;;11.58;100.00
18813;BME280;9534;51.140;6.296;2022-12-29T09:20:41;99361.00;;;11.51;100.00
18813;BME280;9534;51.140;6.296;2022-12-29T09:24:45;99369.81;;;11.53;100.00
18813;BME280;9534;51.140;6.296;2022-12-29T09:28:48;99372.66;;;11.58;100.00
18813;BME280;9534;51.140;6.296;2022-12-29T09:32:51;99379.78;;;11.59;100.00
18813;BME280;9534;51.140;6.296;2022-12-29T09:36:56;99368.50;;;11.56;100.00
18813;BME280;9534;51.140;6.296;2022-12-29T09:41:04;99364.44;;;11.58;100.00
18813;BME280;9534;51.140;6.296;2022-12-29T09:45:14;99370.13;;;11.68;100.00
18813;BME280;9534;51.140;6.296;2022-12-29T09:49:24;99357.13;;;12.13;100.00
18813;BME280;9534;51.140;6.296;2022-12-29T09:53:33;99392.13;;;12.06;100.00
18813;BME280;9534;51.140;6.296;2022-12-29T09:57:45;99375.78;;;11.78;100.00
18813;BME280;9534;51.140;6.296;2022-12-29T10:01:54;99370.69;;;11.87;100.00
18813;BME280;9534;51.140;6.296;2022-12-29T10:06:06;99369.72;;;11.93;100.00
18813;BME280;9534;51.140;6.296;2022-12-29T10:10:23;99377.03;;;12.04;100.00
18813;BME280;9534;51.140;6.296;2022-12-29T10:14:44;99401.94;;;12.02;100.00
18813;BME280;9534;51.140;6.296;2022-12-29T10:19:16;99386.97;;;12.26;100.00
18813;BME280;9534;51.140;6.296;2022-12-29T10:23:34;99388.28;;;12.40;100.00
18813;BME280;9534;51.140;6.296;2022-12-29T10:27:39;99406.41;;;12.08;100.00
18813;BME280;9534;51.140;6.296;2022-12-29T10:31:47;99375.84;;;12.16;100.00
18813;BME280;9534;51.140;6.296;2022-12-29T10:35:52;99420.94;;;12.58;100.00
18813;BME280;9534;51.140;6.296;2022-12-29T10:39:55;99409.91;;;12.36;100.00
18813;BME280;9534;51.140;6.296;2022-12-29T10:44:00;99448.94;;;12.60;100.00
18813;BME280;9534;51.140;6.296;2022-12-29T10:48:09;99409.09;;;12.95;100.00
18813;BME280;9534;51.140;6.296;2022-12-29T10:52:16;99394.00;;;12.76;100.00
18813;BME280;9534;51.140;6.296;2022-12-29T10:56:27;99418.22;;;12.25;100.00
18813;BME280;9534;51.140;6.296;2022-12-29T11:00:33;99448.53;;;12.02;100.00
18813;BME280;9534;51.140;6.296;2022-12-29T11:04:47;99441.47;;;11.90;100.00
18813;BME280;9534;51.140;6.296;2022-12-29T11:08:56;99444.41;;;11.83;100.00
18813;BME280;9534;51.140;6.296;2022-12-29T11:13:01;99440.31;;;11.86;100.00
18813;BME280;9534;51.140;6.296;2022-12-29T11:17:05;99475.34;;;11.84;100.00
18813;BME280;9534;51.140;6.296;2022-12-29T11:21:30;99451.84;;;11.71;100.00
18813;BME280;9534;51.140;6.296;2022-12-29T11:25:33;99521.34;;;11.65;100.00
18813;BME280;9534;51.140;6.296;2022-12-29T11:29:38;99476.41;;;11.66;100.00
18813;BME280;9534;51.140;6.296;2022-12-29T11:33:42;99480.81;;;11.67;100.00
18813;BME280;9534;51.140;6.296;2022-12-29T11:37:53;99485.09;;;11.63;100.00
18813;BME280;9534;51.140;6.296;2022-12-29T11:42:00;99490.69;;;11.68;100.00
18813;BME280;9534;51.140;6.296;2022-12-29T11:46:05;99514.50;;;11.68;100.00
18813;BME280;9534;51.140;6.296;2022-12-29T11:50:17;99486.16;;;11.62;100.00
18813;BME280;9534;51.140;6.296;2022-12-29T11:54:24;99512.97;;;11.60;100.00
18813;BME280;9534;51.140;6.296;2022-12-29T11:58:29;99508.78;;;11.58;100.00
18813;BME280;9534;51.140;6.296;2022-12-29T12:02:41;99509.06;;;11.56;100.00
18813;BME280;9534;51.140;6.296;2022-12-29T12:06:49;99505.50;;;11.56;100.00
18813;BME280;9534;51.140;6.296;2022-12-29T12:11:06;99508.47;;;11.54;100.00
18813;BME280;9534;51.140;6.296;2022-12-29T12:15:15;99502.88;;;11.49;100.00
18813;BME280;9534;51.140;6.296;2022-12-29T12:19:32;99517.06;;;11.46;100.00
18813;BME280;9534;51.140;6.296;2022-12-29T12:23:54;99503.16;;;11.48;100.00
18813;BME280;9534;51.140;6.296;2022-12-29T12:28:06;99514.69;;;11.50;100.00
18813;BME280;9534;51.140;6.296;2022-12-29T12:32:16;99518.25;;;11.50;100.00
18813;BME280;9534;51.140;6.296;2022-12-29T12:36:29;99518.72;;;11.47;100.00
18813;BME280;9534;51.140;6.296;2022-12-29T12:40:43;99510.41;;;11.42;100.00
18813;BME280;9534;51.140;6.296;2022-12-29T12:45:15;99526.25;;;11.40;100.00
18813;BME280;9534;51.140;6.296;2022-12-29T12:54:16;99521.63;;;11.29;100.00
18813;BME280;9534;51.140;6.296;2022-12-29T12:58:30;99542.00;;;11.33;100.00
18813;BME280;9534;51.140;6.296;2022-12-29T13:03:01;99549.72;;;11.36;100.00
18813;BME280;9534;51.140;6.296;2022-12-29T13:07:14;99530.19;;;11.44;100.00
18813;BME280;9534;51.140;6.296;2022-12-29T13:11:26;99524.91;;;11.54;100.00
18813;BME280;9534;51.140;6.296;2022-12-29T13:15:41;99537.31;;;11.45;100.00
18813;BME280;9534;51.140;6.296;2022-12-29T13:19:54;99546.00;;;11.54;100.00
18813;BME280;9534;51.140;6.296;2022-12-29T13:24:07;99528.81;;;11.58;100.00
18813;BME280;9534;51.140;6.296;2022-12-29T13:28:19;99526.94;;;11.47;100.00
18813;BME280;9534;51.140;6.296;2022-12-29T13:32:34;99536.00;;;11.48;100.00
18813;BME280;9534;51.140;6.296;2022-12-29T13:36:44;99544.94;;;11.43;100.00
18813;BME280;9534;51.140;6.296;2022-12-29T13:40:52;99536.63;;;11.38;100.00
18813;BME280;9534;51.140;6.296;2022-12-29T13:44:59;99552.34;;;11.31;100.00
18813;BME280;9534;51.140;6.296;2022-12-29T13:49:07;99549.88;;;11.30;100.00
18813;BME280;9534;51.140;6.296;2022-12-29T13:53:18;99573.06;;;11.27;100.00
18813;BME280;9534;51.140;6.296;2022-12-29T13:57:33;99574.03;;;11.21;100.00
18813;BME280;9534;51.140;6.296;2022-12-29T14:01:41;99574.28;;;11.20;100.00
18813;BME280;9534;51.140;6.296;2022-12-29T14:06:03;99572.38;;;11.20;100.00
18813;BME280;9534;51.140;6.296;2022-12-29T14:10:27;99580.47;;;11.15;100.00
18813;BME280;9534;51.140;6.296;2022-12-29T14:14:31;99601.22;;;11.11;100.00
18813;BME280;9534;51.140;6.296;2022-12-29T14:18:41;99582.28;;;11.10;100.00
18813;BME280;9534;51.140;6.296;2022-12-29T14:22:56;99577.66;;;11.10;100.00
18813;BME280;9534;51.140;6.296;2022-12-29T14:27:01;99578.47;;;11.11;100.00
18813;BME280;9534;51.140;6.296;2022-12-29T14:31:34;99590.16;;;11.07;100.00
18813;BME280;9534;51.140;6.296;2022-12-29T14:35:44;99587.63;;;11.05;100.00
18813;BME280;9534;51.140;6.296;2022-12-29T14:40:03;99595.03;;;11.05;100.00
18813;BME280;9534;51.140;6.296;2022-12-29T14:44:18;99602.28;;;10.99;100.00
18813;BME280;9534;51.140;6.296;2022-12-29T14:48:38;99610.72;;;10.98;100.00
18813;BME280;9534;51.140;6.296;2022-12-29T14:52:46;99609.53;;;10.94;100.00
18813;BME280;9534;51.140;6.296;2022-12-29T14:56:57;99622.63;;;10.92;100.00
18813;BME280;9534;51.140;6.296;2022-12-29T15:01:02;99619.88;;;10.92;100.00
18813;BME280;9534;51.140;6.296;2022-12-29T15:05:22;99623.69;;;10.91;100.00
18813;BME280;9534;51.140;6.296;2022-12-29T15:09:29;99637.81;;;10.65;100.00
18813;BME280;9534;51.140;6.296;2022-12-29T15:13:39;99641.34;;;10.13;100.00
18813;BME280;9534;51.140;6.296;2022-12-29T15:17:45;99650.59;;;9.94;100.00
18813;BME280;9534;51.140;6.296;2022-12-29T15:21:49;99634.97;;;9.83;100.00
18813;BME280;9534;51.140;6.296;2022-12-29T15:25:55;99648.19;;;9.86;100.00
18813;BME280;9534;51.140;6.296;2022-12-29T15:30:00;99661.53;;;9.94;100.00
18813;BME280;9534;51.140;6.296;2022-12-29T15:34:11;99648.84;;;9.99;100.00
18813;BME280;9534;51.140;6.296;2022-12-29T15:38:16;99658.09;;;9.98;100.00
18813;BME280;9534;51.140;6.296;2022-12-29T15:42:48;99660.63;;;10.00;100.00
18813;BME280;9534;51.140;6.296;2022-12-29T15:46:52;99663.84;;;10.08;100.00
18813;BME280;9534;51.140;6.296;2022-12-29T15:50:57;99651.81;;;10.16;100.00
18813;BME280;9534;51.140;6.296;2022-12-29T15:55:01;99662.44;;;10.24;100.00
18813;BME280;9534;51.140;6.296;2022-12-29T15:59:05;99650.91;;;10.22;100.00
18813;BME280;9534;51.140;6.296;2022-12-29T16:03:12;99645.09;;;10.30;100.00
18813;BME280;9534;51.140;6.296;2022-12-29T16:07:26;99640.94;;;10.39;100.00
18813;BME280;9534;51.140;6.296;2022-12-29T16:11:33;99648.41;;;10.32;100.00
18813;BME280;9534;51.140;6.296;2022-12-29T16:15:37;99662.31;;;10.30;100.00
18813;BME280;9534;51.140;6.296;2022-12-29T16:19:42;99652.47;;;10.29;100.00
18813;BME280;9534;51.140;6.296;2022-12-29T16:23:54;99658.19;;;10.28;100.00
18813;BME280;9534;51.140;6.296;2022-12-29T16:27:58;99654.44;;;10.22;100.00
18813;BME280;9534;51.140;6.296;2022-12-29T16:32:03;99682.19;;;10.26;100.00
18813;BME280;9534;51.140;6.296;2022-12-29T16:36:32;99683.09;;;10.20;100.00
18813;BME280;9534;51.140;6.296;2022-12-29T16:40:49;99689.50;;;10.14;100.00
18813;BME280;9534;51.140;6.296;2022-12-29T16:45:12;99693.31;;;10.06;100.00
18813;BME280;9534;51.140;6.296;2022-12-29T16:49:25;99694.16;;;10.07;100.00
18813;BME280;9534;51.140;6.296;2022-12-29T16:53:32;99694.63;;;10.04;100.00
18813;BME280;9534;51.140;6.296;2022-12-29T16:57:38;99709.56;;;10.01;100.00
18813;BME280;9534;51.140;6.296;2022-12-29T17:01:41;99709.34;;;10.03;100.00
18813;BME280;9534;51.140;6.296;2022-12-29T17:05:44;99731.69;;;10.00;100.00
18813;BME280;9534;51.140;6.296;2022-12-29T17:09:53;99757.25;;;9.70;100.00
18813;BME280;9534;51.140;6.296;2022-12-29T17:13:58;99757.88;;;9.47;100.00
18813;BME280;9534;51.140;6.296;2022-12-29T17:18:01;99756.06;;;9.59;100.00
18813;BME280;9534;51.140;6.296;2022-12-29T17:22:12;99812.47;;;8.98;100.00
18813;BME280;9534;51.140;6.296;2022-12-29T17:26:16;99798.78;;;8.67;100.00
18813;BME280;9534;51.140;6.296;2022-12-29T17:30:22;99804.16;;;8.50;100.00
18813;BME280;9534;51.140;6.296;2022-12-29T17:34:33;99809.63;;;8.50;100.00
18813;BME280;9534;51.140;6.296;2022-12-29T17:38:36;99820.72;;;8.55;100.00
18813;BME280;9534;51.140;6.296;2022-12-29T17:42:42;99826.06;;;8.67;100.00
18813;BME280;9534;51.140;6.296;2022-12-29T17:46:47;99809.00;;;8.85;100.00
18813;BME280;9534;51.140;6.296;2022-12-29T17:50:52;99802.88;;;8.89;100.00
18813;BME280;9534;51.140;6.296;2022-12-29T17:54:56;99792.38;;;8.86;100.00
18813;BME280;9534;51.140;6.296;2022-12-29T17:58:59;99803.56;;;8.78;100.00
18813;BME280;9534;51.140;6.296;2022-12-29T18:03:03;99812.91;;;8.95;100.00
18813;BME280;9534;51.140;6.296;2022-12-29T18:07:09;99800.75;;;8.91;100.00
18813;BME280;9534;51.140;6.296;2022-12-29T18:11:24;99807.09;;;8.85;100.00
18813;BME280;9534;51.140;6.296;2022-12-29T18:15:29;99803.75;;;8.83;100.00
18813;BME280;9534;51.140;6.296;2022-12-29T18:19:34;99791.59;;;8.79;100.00
18813;BME280;9534;51.140;6.296;2022-12-29T18:23:37;99794.75;;;8.76;100.00
18813;BME280;9534;51.140;6.296;2022-12-29T18:27:40;99808.44;;;8.70;100.00
18813;BME280;9534;51.140;6.296;2022-12-29T18:31:43;99815.16;;;8.67;100.00
18813;BME280;9534;51.140;6.296;2022-12-29T18:35:50;99821.84;;;8.71;100.00
18813;BME280;9534;51.140;6.296;2022-12-29T18:39:54;99821.84;;;8.71;100.00
18813;BME280;9534;51.140;6.296;2022-12-29T18:43:58;99832.94;;;8.76;100.00
18813;BME280;9534;51.140;6.296;2022-12-29T18:48:01;99831.28;;;8.75;100.00
18813;BME280;9534;51.140;6.296;2022-12-29T18:52:11;99840.75;;;8.66;100.00
18813;BME280;9534;51.140;6.296;2022-12-29T18:56:14;99833.63;;;8.65;100.00
18813;BME280;9534;51.140;6.296;2022-12-29T19:00:20;99824.81;;;8.63;100.00
18813;BME280;9534;51.140;6.296;2022-12-29T19:04:23;99834.34;;;8.55;100.00
18813;BME280;9534;51.140;6.296;2022-12-29T19:08:28;99833.72;;;8.53;100.00
18813;BME280;9534;51.140;6.296;2022-12-29T19:12:31;99838.34;;;8.46;100.00
18813;BME280;9534;51.140;6.296;2022-12-29T19:16:34;99845.91;;;8.44;100.00
18813;BME280;9534;51.140;6.296;2022-12-29T19:20:39;99862.75;;;8.28;100.00
18813;BME280;9534;51.140;6.296;2022-12-29T19:24:44;99845.97;;;8.18;100.00
18813;BME280;9534;51.140;6.296;2022-12-29T19:28:47;99868.59;;;8.25;100.00
18813;BME280;9534;51.140;6.296;2022-12-29T19:32:52;99862.31;;;8.18;100.00
18813;BME280;9534;51.140;6.296;2022-12-29T19:36:55;99881.41;;;8.11;100.00
18813;BME280;9534;51.140;6.296;2022-12-29T19:41:00;99862.13;;;8.13;100.00
18813;BME280;9534;51.140;6.296;2022-12-29T19:45:04;99874.50;;;8.09;100.00
18813;BME280;9534;51.140;6.296;2022-12-29T19:49:07;99862.13;;;8.00;100.00
18813;BME280;9534;51.140;6.296;2022-12-29T19:53:11;99869.88;;;8.03;100.00
18813;BME280;9534;51.140;6.296;2022-12-29T19:57:16;99899.22;;;8.01;100.00
18813;BME280;9534;51.140;6.296;2022-12-29T20:01:21;99902.81;;;7.95;100.00
18813;BME280;9534;51.140;6.296;2022-12-29T20:05:24;99900.50;;;7.92;100.00
18813;BME280;9534;51.140;6.296;2022-12-29T20:09:28;99927.75;;;7.92;100.00
18813;BME280;9534;51.140;6.296;2022-12-29T20:13:33;99924.81;;;7.93;100.00
18813;BME280;9534;51.140;6.296;2022-12-29T20:17:37;99928.16;;;7.89;100.00
18813;BME280;9534;51.140;6.296;2022-12-29T20:22:00;99918.09;;;8.02;100.00
18813;BME280;9534;51.140;6.296;2022-12-29T20:26:05;99939.25;;;7.94;100.00
18813;BME280;9534;51.140;6.296;2022-12-29T20:30:11;99931.94;;;7.88;100.00
18813;BME280;9534;51.140;6.296;2022-12-29T20:34:15;99935.50;;;7.82;100.00
18813;BME280;9534;51.140;6.296;2022-12-29T20:38:19;99965.03;;;7.98;100.00
18813;BME280;9534;51.140;6.296;2022-12-29T20:42:22;99951.84;;;7.95;100.00
18813;BME280;9534;51.140;6.296;2022-12-29T20:46:27;99940.94;;;7.95;100.00
18813;BME280;9534;51.140;6.296;2022-12-29T20:50:40;99946.19;;;7.90;100.00
18813;BME280;9534;51.140;6.296;2022-12-29T20:54:43;99955.81;;;7.86;100.00
18813;BME280;9534;51.140;6.296;2022-12-29T20:58:47;99959.19;;;7.81;100.00
18813;BME280;9534;51.140;6.296;2022-12-29T21:03:11;99962.09;;;7.80;100.00
18813;BME280;9534;51.140;6.296;2022-12-29T21:07:15;99970.28;;;7.86;100.00
18813;BME280;9534;51.140;6.296;2022-12-29T21:11:21;99964.19;;;7.91;100.00
18813;BME280;9534;51.140;6.296;2022-12-29T21:15:25;99961.28;;;7.92;100.00
18813;BME280;9534;51.140;6.296;2022-12-29T21:19:30;99953.94;;;7.93;100.00
18813;BME280;9534;51.140;6.296;2022-12-29T21:23:37;99943.25;;;7.98;100.00
18813;BME280;9534;51.140;6.296;2022-12-29T21:27:40;99942.22;;;7.92;100.00
18813;BME280;9534;51.140;6.296;2022-12-29T21:31:46;99948.91;;;7.90;100.00
18813;BME280;9534;51.140;6.296;2022-12-29T21:35:51;99939.25;;;7.94;100.00
18813;BME280;9534;51.140;6.296;2022-12-29T21:39:54;99933.19;;;7.92;100.00
18813;BME280;9534;51.140;6.296;2022-12-29T21:43:58;99952.25;;;7.92;100.00
18813;BME280;9534;51.140;6.296;2022-12-29T21:48:19;99950.78;;;7.96;100.00
18813;BME280;9534;51.140;6.296;2022-12-29T21:52:31;99948.28;;;8.07;100.00
18813;BME280;9534;51.140;6.296;2022-12-29T21:56:34;99950.81;;;7.89;100.00
18813;BME280;9534;51.140;6.296;2022-12-29T22:00:37;99953.72;;;8.01;100.00
18813;BME280;9534;51.140;6.296;2022-12-29T22:04:58;99949.53;;;7.92;100.00